Logo AVAMET
Benvolgut visitant, si us plau, ingressa Recuperar contrasenya

València Jesús

Dades diàries. Acumulats / Últims 30 dies disponibles

Data Temperatura (°C) Humitat rel. (%) Pressió rel. (hPa) Vent (km/h) Precipitació
Mínima Mitjana Màxima Amplitud
tèrmica
Mínima Mitjana Màxima Mínima Mitjana Màxima Predom. Mitjana Ràfega
màxima
Total
(mm)
Índex-n
Mínima Mitjana Màxima Mínima Mitjana Màxima n
0 a 1
P0 max
mm 5'
Dades mensuals acumulades fins l'últim dia disponible
10/2019 14,4 18,7 21,1 19,7 22,9 27,3 35,3 20,9 1 56 89 1.006 1.015 1.021   2,7 38,6 0,2
Dades anuals acumulades fins l'últim dia disponible
2019 2,5 15,7 27,5 19,6 12,2 24,3 41,7 39,2 0 62 98 991 1.016 1.034   4,1 67,6 190,4
Últims 30 dies disponibles
16-10-2019 14,4     17,5     26,2 11,8 1 34 51 1.014 1.017 1.019 S 3,9 24,1 0,0
15-10-2019 15,0     17,2     25,3 10,3 1 34 60 1.013 1.016 1.018 S 5,3 38,6 0,0
14-10-2019 20,5     18,8     24,6 4,1 1 67 87 1.009 1.012 1.015 ESE 3,6 37,0 0,2
13-10-2019 19,9     20,1     27,2 7,3 1 67 88 1.014 1.015 1.016 ESE 1,7 14,5 0,0
12-10-2019 21,1     19,4     26,1 5,0 1 66 85 1.015 1.017 1.018 E 2,1 19,3 0,0
11-10-2019 20,8     19,5     26,3 5,5 1 62 83 1.017 1.019 1.021 ESE 2,7 17,7 0,0
10-10-2019 20,8     18,6     22,9 2,1 1 62 83 1.018 1.019 1.021 ENE 4,3 32,2 0,0
09-10-2019 19,4     20,2     27,2 7,8 1 64 83 1.014 1.015 1.018 SSE 1,2 17,7 0,0
08-10-2019 17,4     20,4     27,1 9,7 1 62 82 1.014 1.017 1.019 SE 3,4 22,5 0,0
07-10-2019 18,6     19,8     27,3 8,7 1 57 89 1.013 1.015 1.017 SSE 1,5 24,1 0,0
06-10-2019 17,9     19,8     27,2 9,3 1 64 86 1.014 1.015 1.017 SE 1,4 17,7 0,0
05-10-2019 18,6     20,0     27,2 8,6 1 58 82 1.012 1.014 1.015 ESE 1,9 17,7 0,0
04-10-2019 17,4     20,1     29,0 11,6 1 54 86 1.012 1.014 1.016 SE 3,0 19,3 0,0
03-10-2019 17,3     19,4     26,9 9,6 1 45 76 1.013 1.015 1.016 SE 2,7 20,9 0,0
02-10-2019 20,1     22,0     30,3 10,2 1 37 56 1.009 1.012 1.015 SSE 2,9 32,2 0,0
01-10-2019 20,0     22,4     35,3 15,3 1 60 89 1.006 1.009 1.014 SSE 2,3 25,7 0,0
30-09-2019 19,6     21,0     27,6 8,0 1 67 86 1.013 1.014 1.016 SE 2,9 24,1 0,0
29-09-2019 19,3     22,1     30,4 11,1 1 64 89 1.012 1.015 1.018 SE 2,6 19,3 0,0
28-09-2019 19,6     21,5     28,0 8,4 1 67 85 1.016 1.018 1.020 ESE 2,4 20,9 0,0
27-09-2019 20,6     22,0     28,9 8,3 1 67 89 1.014 1.015 1.017 SE 3,7 25,7 0,0
26-09-2019 20,6     21,6     27,7 7,1 1 66 87 1.015 1.016 1.018 SE 3,2 25,7 0,0
25-09-2019 22,2     22,5     28,3 6,1 1 53 81 1.011 1.013 1.016 SSE 3,1 29,0 0,0
24-09-2019 19,0     24,2     34,7 15,7 1 42 82 1.010 1.014 1.017 SSO 5,1 29,0 0,0
23-09-2019 19,6     21,6     27,6 8,0 1 52 78 1.014 1.017 1.019 SSE 2,4 17,7 0,0
22-09-2019 22,2     23,2     31,4 9,2 1 52 91 1.009 1.011 1.014 S 4,6 30,6 0,0
21-09-2019 22,1     21,6     28,6 6,5 1 65 86 1.009 1.011 1.014 E 3,3 20,9 0,0
20-09-2019 21,5     21,3     26,9 5,4 1 71 87 1.014 1.016 1.017 ESE 3,0 20,9 0,0
19-09-2019 20,4     21,8     27,9 7,5 1 67 82 1.014 1.015 1.017 SSE 1,7 19,3 0,0
18-09-2019 20,5     22,4     30,1 9,6 1 56 78 1.012 1.013 1.015 SSE 2,2 14,5 0,0
17-09-2019 20,8     22,3     28,8 8,0 1 69 89 1.013 1.015 1.017 SSE 1,7 16,1 0,0
Últims 13 mesos disponibles
09/2019 16,2 20,8 24,0 21,9 21,2 28,1 34,7 18,5 37 62 71 1.008 1.016 1.023 SE 4,2 54,7 82,6
08/2019 18,8 23,1 27,5 27,2 27,3 31,1 41,7 22,9 40 68 78 1.009 1.014 1.018 ESE 4,1 54,7 11,4
07/2019 21,9 23,4 25,8 27,2 28,3 31,1 37,8 15,9 49 65 75 1.003 1.012 1.019 SSE 4,0 41,8 5,0
06/2019 14,1 18,9 23,0 23,0 21,7 27,2 35,3 21,2 38 63 79 1.007 1.014 1.020 SSE 4,2 57,9 0,0
05/2019 10,1 15,2 20,9 19,1 19,0 23,1 32,7 22,6 45 65 84 1.003 1.014 1.023 SE 4,2 49,9 16,6
04/2019 9,2 11,7 14,5 15,4 13,8 19,5 29,8 20,6 42 65 96 998 1.010 1.018 S 6,4 67,6 59,4
03/2019 7,3 10,4 16,2 15,4 13,4 20,2 29,3 22,0 41 56 84 1.008 1.021 1.028 SSE 3,6 56,3 15,0
02/2019 4,9 8,1 11,1 13,2 12,8 18,2 25,4 20,5 33 61 74 993 1.023 1.032 ESE 3,4 59,5 0,0
01/2019 2,5 7,2 12,9 12,3 12,2 17,1 20,6 18,1 37 55 74 1.000 1.017 1.029 SE 3,5 54,7 0,2
12/2018 5,4 9,4 12,8 13,4 14,4 18,9 23,7 18,3 48 68 82 1.007 1.024 1.029 SO 2,5 43,5 10,0
11/2018 7,3 11,8 16,5 14,9 14,8 18,9 24,3 17,0 50 71 93 1.000 1.014 1.022 SSO 4,1 57,9 97,4
10/2018 7,4 15,5 19,5 19,1 13,8 23,2 28,1 20,7 44 70 90 999 1.013 1.024 3,1 49,9 169,0
09/2018 17,7 21,6 23,9 24,8 25,1 28,5 32,5 14,8 68 75 84 1.010 1.017 1.027 3,6 39,0 156,2
Tots els anys disponibles
2017 1,4 15,0 26,6 19,1 9,3 23,3 36,8 35,4 31 64 90 996 1.017 1.035 S 1,1 69,0 316,0
2016 3,3 15,1 25,8 18,9 11,1 22,8 36,6 33,3 32 64 89 994 1.017 1.036 71,0 569,8
Temperatura (°C)
Humitat relativa (%)
Velocitat del vent i ràfega màxima (km/h)
Direcció del vent (°)
Pressió (hPa)
Precipitació (mm)
Nota sobre les dades: s'avisa a l'usuari de la provisionalitat i no oficialitat d'aquestes dades
Logo AVAMET blanc
Web allotjada a Sollutia
Llicència de Creative CommonsLa web d'AVAMET i els seus continguts estan subjectes a una llicència de
Reconeixement - No Comercial - Compartir igual
Últimes estacions: Villena - Villa Ventín (Soci), Benissa - Convent (Soci), Xàbia Fontanella (Soci), Castielfabib (Soci), Sant Mateu (Soci), Vallada (Soci), Agullent (Soci), - - -